New York, New York
Traffic Map
Current Weather Conditions
New York, New York
Overcast
Overcast
62°
Feels Like: 62°
Wind Chill: 62° Ceiling: 1600
Heat Index: 62° Visibility: 10mi
Dew Point: 55° Wind: 13mph
Humidity: 78% Direction: 50° (NE)
Pressure: 30.5in Gusts: 20mph
Raw Report DataKNYC 241451Z AUTO 05011G17KT 10SM BKN016 BKN022 OVC029 17/13 A3050 RMK AO2 SLP319 T01670128 51019 $
Traffic Incident Summary
Active as of:
Severity:
Category:
InformationThere was an issue retrieving the traffic information for this location. Please try a different location or try again shortly.
Advertisements